Austin, Texas
Traffic Map
Current Weather Conditions
Austin, Texas
Overcast
Overcast
43°
Feels Like: 40°
Wind Chill: 40° Ceiling: 2300
Heat Index: 43° Visibility: 10mi
Dew Point: 30° Wind: 5mph
Humidity: 60% Direction: 130° (SE)
Pressure: 30.47in Gusts: 0mph
Raw Report DataKATT 101451Z AUTO 13004KT 10SM BKN023 OVC029 06/M01 A3047 RMK AO2 SLP322 T00611011 53003
Traffic Incident Summary
Active as of:
Severity:
Category:
InformationThere was an issue retrieving the traffic information for this location. Please try a different location or try again shortly.
Advertisements
Track Severe Weather on mobile